createdAt,value
2017-10-29T00:00:02.352Z,14.3
2017-10-29T00:00:28.473Z,14.33
2017-10-29T00:00:54.594Z,14.35
2017-10-29T00:01:20.758Z,14.33
2017-10-29T00:01:46.887Z,14.43
2017-10-29T00:02:13.063Z,14.37
2017-10-29T00:02:39.189Z,14.36
2017-10-29T00:03:05.314Z,14.33
2017-10-29T00:03:31.455Z,14.36
2017-10-29T00:03:57.607Z,14.33
2017-10-29T00:04:23.692Z,14.29
2017-10-29T00:04:49.817Z,14.26
2017-10-29T00:05:15.938Z,14.36
2017-10-29T00:05:42.089Z,14.37
2017-10-29T00:06:08.214Z,14.4
2017-10-29T00:06:34.352Z,14.37
2017-10-29T00:07:00.477Z,14.33
2017-10-29T00:07:26.596Z,14.37
2017-10-29T00:07:52.726Z,14.33
2017-10-29T00:08:18.861Z,14.36
2017-10-29T00:08:48.050Z,14.28
2017-10-29T00:09:14.166Z,14.18
2017-10-29T00:09:40.301Z,14.23
2017-10-29T00:10:06.448Z,14.2
2017-10-29T00:10:32.582Z,14.22
2017-10-29T00:10:58.702Z,14.32
2017-10-29T00:11:24.841Z,14.23
2017-10-29T00:11:50.960Z,14.26
2017-10-29T00:12:17.101Z,14.23
2017-10-29T00:12:43.226Z,14.29
2017-10-29T00:13:09.363Z,14.28
2017-10-29T00:13:35.529Z,14.29
2017-10-29T00:14:01.655Z,14.29
2017-10-29T00:14:27.771Z,14.32
2017-10-29T00:14:53.899Z,14.26
2017-10-29T00:15:20.018Z,14.25
2017-10-29T00:15:46.139Z,14.33
2017-10-29T00:16:12.287Z,14.35
2017-10-29T00:16:38.411Z,14.2
2017-10-29T00:17:04.528Z,14.26
2017-10-29T00:17:30.688Z,14.25
2017-10-29T00:17:56.808Z,14.25
2017-10-29T00:18:22.938Z,14.26
2017-10-29T00:18:49.057Z,14.23
2017-10-29T00:19:15.184Z,14.25
2017-10-29T00:19:41.302Z,14.23
2017-10-29T00:20:07.421Z,14.23
2017-10-29T00:20:33.556Z,14.2
2017-10-29T00:20:59.670Z,14.28
2017-10-29T00:21:25.804Z,14.28
2017-10-29T00:21:51.921Z,14.25
2017-10-29T00:22:18.085Z,14.28
2017-10-29T00:22:44.414Z,14.18
2017-10-29T00:23:10.533Z,14.25
2017-10-29T00:23:36.660Z,14.25
2017-10-29T00:24:02.778Z,14.23
2017-10-29T00:24:28.899Z,14.17
2017-10-29T00:24:55.029Z,14.29
2017-10-29T00:25:21.152Z,14.23
2017-10-29T00:25:47.277Z,14.17
2017-10-29T00:26:13.404Z,14.15
2017-10-29T00:26:39.520Z,14.25
2017-10-29T00:27:05.650Z,14.25
2017-10-29T00:27:31.775Z,14.26
2017-10-29T00:27:57.900Z,14.17
2017-10-29T00:28:24.027Z,14.2
2017-10-29T00:28:50.150Z,14.26
2017-10-29T00:29:16.267Z,14.26
2017-10-29T00:29:42.391Z,14.26
2017-10-29T00:30:08.526Z,14.25
2017-10-29T00:30:34.641Z,14.22
2017-10-29T00:31:00.798Z,14.25
2017-10-29T00:31:26.933Z,14.26
2017-10-29T00:31:53.058Z,14.22
2017-10-29T00:32:19.182Z,14.23
2017-10-29T00:32:45.305Z,14.3
2017-10-29T00:33:11.422Z,14.3
2017-10-29T00:33:37.549Z,14.2
2017-10-29T00:34:03.672Z,14.23
2017-10-29T00:34:29.799Z,14.32
2017-10-29T00:34:55.943Z,14.33
2017-10-29T00:35:22.078Z,14.3
2017-10-29T00:35:48.201Z,14.22
2017-10-29T00:36:14.321Z,14.29
2017-10-29T00:36:40.449Z,14.33
2017-10-29T00:37:06.562Z,14.28
2017-10-29T00:37:32.690Z,14.3
2017-10-29T00:37:58.808Z,14.32
2017-10-29T00:38:24.951Z,14.32
2017-10-29T00:38:51.081Z,14.29
2017-10-29T00:39:17.198Z,14.23
2017-10-29T00:39:43.327Z,14.2
2017-10-29T00:40:09.459Z,14.22
2017-10-29T00:40:35.605Z,14.26
2017-10-29T00:41:01.729Z,14.15
2017-10-29T00:41:27.854Z,14.12
2017-10-29T00:41:53.972Z,14.29
2017-10-29T00:42:20.097Z,14.25
2017-10-29T00:42:46.225Z,14.23
2017-10-29T00:43:12.368Z,14.25
2017-10-29T00:43:38.493Z,14.26
2017-10-29T00:44:04.620Z,14.26
2017-10-29T00:44:30.769Z,14.29
2017-10-29T00:44:56.917Z,14.23
2017-10-29T00:45:23.041Z,14.26
2017-10-29T00:45:49.163Z,14.23
2017-10-29T00:46:15.280Z,14.18
2017-10-29T00:46:41.408Z,14.22
2017-10-29T00:47:07.535Z,14.22
2017-10-29T00:47:33.653Z,14.23
2017-10-29T00:47:59.785Z,14.26
2017-10-29T00:48:25.942Z,14.32
2017-10-29T00:48:52.065Z,14.22
2017-10-29T00:49:18.183Z,14.22
2017-10-29T00:49:44.312Z,14.22
2017-10-29T00:50:10.439Z,14.32
2017-10-29T00:50:36.578Z,14.3
2017-10-29T00:51:02.707Z,14.25
2017-10-29T00:51:28.828Z,14.29
2017-10-29T00:51:54.948Z,14.26
2017-10-29T00:52:21.082Z,14.15
2017-10-29T00:52:47.232Z,14.25
2017-10-29T00:53:13.385Z,14.29
2017-10-29T00:53:39.520Z,14.23
2017-10-29T00:54:05.630Z,14.28
2017-10-29T00:54:31.762Z,14.2
2017-10-29T00:54:57.878Z,14.25
2017-10-29T00:55:24.020Z,14.28
2017-10-29T00:55:50.134Z,14.26
2017-10-29T00:56:16.253Z,14.23
2017-10-29T00:56:42.406Z,14.29
2017-10-29T00:57:08.563Z,14.26
2017-10-29T00:57:34.680Z,14.2
2017-10-29T00:58:00.798Z,14.22
2017-10-29T00:58:26.925Z,14.26
2017-10-29T00:58:53.046Z,14.25
2017-10-29T00:59:19.166Z,14.22
2017-10-29T00:59:45.288Z,14.25
2017-10-29T01:00:11.421Z,14.18
2017-10-29T01:00:37.552Z,14.32
2017-10-29T01:01:03.678Z,14.22
2017-10-29T01:01:29.801Z,14.26
2017-10-29T01:01:55.920Z,14.25
2017-10-29T01:02:22.046Z,14.23
2017-10-29T01:02:48.171Z,14.25
2017-10-29T01:03:14.290Z,14.26
2017-10-29T01:03:40.420Z,14.2
2017-10-29T01:04:06.540Z,14.25
2017-10-29T01:04:32.661Z,14.23
2017-10-29T01:04:58.787Z,14.23
2017-10-29T01:05:24.943Z,14.26
2017-10-29T01:05:51.117Z,14.26
2017-10-29T01:06:17.219Z,14.17
2017-10-29T01:06:43.349Z,14.18
2017-10-29T01:07:09.475Z,14.15
2017-10-29T01:07:35.626Z,14.1
2017-10-29T01:08:01.722Z,14.1
2017-10-29T01:08:27.841Z,14.14
2017-10-29T01:08:53.967Z,14.14
2017-10-29T01:09:20.086Z,14.07
2017-10-29T01:09:46.215Z,14.11
2017-10-29T01:10:12.339Z,14.17
2017-10-29T01:10:38.458Z,14.17
2017-10-29T01:11:04.588Z,13.99
2017-10-29T01:11:30.712Z,14.03
2017-10-29T01:11:56.832Z,14.03
2017-10-29T01:12:22.958Z,14.03
2017-10-29T01:12:49.084Z,13.99
2017-10-29T01:13:15.234Z,14.08
2017-10-29T01:13:41.352Z,13.99
2017-10-29T01:14:07.476Z,14.11
2017-10-29T01:14:34.091Z,13.92
2017-10-29T01:15:00.250Z,13.97
2017-10-29T01:15:26.374Z,13.99
2017-10-29T01:15:52.504Z,13.96
2017-10-29T01:16:18.614Z,13.96
2017-10-29T01:16:44.738Z,13.95
2017-10-29T01:17:10.884Z,14
2017-10-29T01:17:37.009Z,13.96
2017-10-29T01:18:03.129Z,13.96
2017-10-29T01:18:29.268Z,13.95
2017-10-29T01:18:55.417Z,14.03
2017-10-29T01:19:21.541Z,14.04
2017-10-29T01:19:47.658Z,13.97
2017-10-29T01:20:13.786Z,14.03
2017-10-29T01:20:39.911Z,14
2017-10-29T01:21:06.039Z,13.96
2017-10-29T01:21:32.157Z,13.95
2017-10-29T01:22:01.315Z,14
2017-10-29T01:22:27.431Z,14
2017-10-29T01:22:53.552Z,14.14
2017-10-29T01:23:19.679Z,13.99
2017-10-29T01:23:45.799Z,13.99
2017-10-29T01:24:11.925Z,14.14
2017-10-29T01:24:38.050Z,14.04
2017-10-29T01:25:04.170Z,14
2017-10-29T01:25:30.287Z,14
2017-10-29T01:25:56.425Z,13.97
2017-10-29T01:26:22.549Z,14.03
2017-10-29T01:26:48.687Z,14.08
2017-10-29T01:27:14.814Z,13.97
2017-10-29T01:27:40.932Z,14
2017-10-29T01:28:07.065Z,13.97
2017-10-29T01:28:33.182Z,14
2017-10-29T01:28:59.305Z,14.04
2017-10-29T01:29:25.431Z,14.1
2017-10-29T01:29:51.556Z,14
2017-10-29T01:30:17.688Z,13.97
2017-10-29T01:30:43.802Z,13.96
2017-10-29T01:31:09.923Z,13.96
2017-10-29T01:31:36.048Z,13.96
2017-10-29T01:32:02.196Z,13.96
2017-10-29T01:32:28.316Z,14
2017-10-29T01:32:54.476Z,13.9
2017-10-29T01:33:20.586Z,14
2017-10-29T01:33:46.743Z,13.99
2017-10-29T01:34:12.838Z,13.93
2017-10-29T01:34:38.971Z,14
2017-10-29T01:35:05.128Z,13.87
2017-10-29T01:35:31.245Z,13.95
2017-10-29T01:35:57.368Z,13.96
2017-10-29T01:36:23.487Z,13.95
2017-10-29T01:36:49.613Z,13.9
2017-10-29T01:37:15.753Z,13.96
2017-10-29T01:37:41.883Z,14
2017-10-29T01:38:08.025Z,14
2017-10-29T01:38:34.150Z,13.96
2017-10-29T01:39:00.280Z,14.05
2017-10-29T01:39:26.418Z,14.05
2017-10-29T01:39:52.533Z,13.97
2017-10-29T01:40:18.655Z,13.96
2017-10-29T01:40:44.786Z,14.1
2017-10-29T01:41:10.904Z,14.03
2017-10-29T01:41:37.030Z,14.04
2017-10-29T01:42:03.152Z,13.97
2017-10-29T01:42:29.313Z,13.97
2017-10-29T01:42:55.420Z,13.99
2017-10-29T01:43:21.547Z,14
2017-10-29T01:43:47.671Z,14.08
2017-10-29T01:44:13.798Z,14.08
2017-10-29T01:44:39.928Z,14.11
2017-10-29T01:45:06.047Z,14.15
2017-10-29T01:45:32.171Z,14.1
2017-10-29T01:45:58.295Z,14.11
2017-10-29T01:46:24.419Z,14.07
2017-10-29T01:46:50.548Z,14.05
2017-10-29T01:47:16.674Z,14.11
2017-10-29T01:47:42.801Z,14.11
2017-10-29T01:48:08.920Z,14.11
2017-10-29T01:48:35.049Z,14.08
2017-10-29T01:49:01.167Z,14.11
2017-10-29T01:49:27.294Z,14.07
2017-10-29T01:49:53.419Z,13.97
2017-10-29T01:50:19.569Z,14.05
2017-10-29T01:50:45.688Z,14.1
2017-10-29T01:51:11.806Z,14.1
2017-10-29T01:51:37.937Z,14.12
2017-10-29T01:52:04.054Z,14.12
2017-10-29T01:52:30.179Z,14.17
2017-10-29T01:52:56.297Z,14.14
2017-10-29T01:53:22.418Z,14.11
2017-10-29T01:53:48.548Z,14.1
2017-10-29T01:54:14.673Z,14.12
2017-10-29T01:54:40.792Z,14.14
2017-10-29T01:55:06.912Z,14.14
2017-10-29T01:55:33.040Z,14.12
2017-10-29T01:55:59.164Z,14.17
2017-10-29T01:56:25.288Z,14.17
2017-10-29T01:56:51.403Z,14.11
2017-10-29T01:57:17.528Z,14.11
2017-10-29T01:57:43.649Z,14.26
2017-10-29T01:58:09.778Z,14.17
2017-10-29T01:58:35.906Z,14.17
2017-10-29T01:59:02.024Z,14.25
2017-10-29T01:59:28.142Z,14.17
2017-10-29T01:59:54.266Z,14.17
2017-10-29T02:00:20.394Z,14.15
2017-10-29T02:00:46.509Z,14.25
2017-10-29T02:01:12.634Z,14.22
2017-10-29T02:01:38.777Z,14.18
2017-10-29T02:02:04.896Z,14.18
2017-10-29T02:02:31.018Z,14.17
2017-10-29T02:02:57.148Z,14.22
2017-10-29T02:03:23.273Z,14.12
2017-10-29T02:03:49.395Z,14.11
2017-10-29T02:04:15.523Z,14.14
2017-10-29T02:04:41.637Z,14.15
2017-10-29T02:05:07.761Z,14.17
2017-10-29T02:05:33.883Z,14.12
2017-10-29T02:06:00.010Z,14.14
2017-10-29T02:06:26.155Z,14.12
2017-10-29T02:06:52.309Z,14.22
2017-10-29T02:07:18.403Z,14.15
2017-10-29T02:07:44.555Z,14.12
2017-10-29T02:08:10.682Z,14.22
2017-10-29T02:08:36.803Z,14.15
2017-10-29T02:09:02.922Z,14.17
2017-10-29T02:09:29.053Z,14.18
2017-10-29T02:09:55.178Z,14.14
2017-10-29T02:10:21.296Z,14.08
2017-10-29T02:10:47.423Z,14.18
2017-10-29T02:11:13.544Z,14.15
2017-10-29T02:11:39.672Z,14.11
2017-10-29T02:12:05.789Z,14.1
2017-10-29T02:12:31.916Z,14.08
2017-10-29T02:12:58.041Z,14.08
2017-10-29T02:13:24.165Z,14.1
2017-10-29T02:13:50.285Z,14.15
2017-10-29T02:14:16.402Z,14.12
2017-10-29T02:14:42.531Z,14.1
2017-10-29T02:15:08.657Z,14.11
2017-10-29T02:15:34.796Z,14.03
2017-10-29T02:16:00.923Z,14.1
2017-10-29T02:16:27.044Z,14
2017-10-29T02:16:53.170Z,14.03
2017-10-29T02:17:19.294Z,14.07
2017-10-29T02:17:45.417Z,13.96
2017-10-29T02:18:11.572Z,14.05
2017-10-29T02:18:37.660Z,14.03
2017-10-29T02:19:03.784Z,13.93
2017-10-29T02:19:29.894Z,13.97
2017-10-29T02:19:56.018Z,13.97
2017-10-29T02:20:22.170Z,13.87
2017-10-29T02:20:48.290Z,13.81
2017-10-29T02:21:14.436Z,13.83
2017-10-29T02:21:40.553Z,13.83
2017-10-29T02:22:06.675Z,13.83
2017-10-29T02:22:32.802Z,13.79
2017-10-29T02:22:58.919Z,13.78
2017-10-29T02:23:25.051Z,13.71
2017-10-29T02:23:51.170Z,13.77
2017-10-29T02:24:17.300Z,13.77
2017-10-29T02:24:43.415Z,13.74
2017-10-29T02:25:09.539Z,13.71
2017-10-29T02:25:35.665Z,13.77
2017-10-29T02:26:01.789Z,13.81
2017-10-29T02:26:27.910Z,13.72
2017-10-29T02:26:54.052Z,13.72
2017-10-29T02:27:20.198Z,13.6
2017-10-29T02:27:46.318Z,13.67
2017-10-29T02:28:12.441Z,13.6
2017-10-29T02:28:38.559Z,13.7
2017-10-29T02:29:04.688Z,13.68
2017-10-29T02:29:30.811Z,13.72
2017-10-29T02:29:56.950Z,13.6
2017-10-29T02:30:23.098Z,13.7
2017-10-29T02:30:49.219Z,13.63
2017-10-29T02:31:15.348Z,13.7
2017-10-29T02:31:41.467Z,13.62
2017-10-29T02:32:07.593Z,13.74
2017-10-29T02:32:33.715Z,13.79
2017-10-29T02:32:59.868Z,13.77
2017-10-29T02:33:25.981Z,13.77
2017-10-29T02:33:52.107Z,13.62
2017-10-29T02:34:18.234Z,13.71
2017-10-29T02:34:44.354Z,13.74
2017-10-29T02:35:10.497Z,13.72
2017-10-29T02:35:36.617Z,13.71
2017-10-29T02:36:02.751Z,13.75
2017-10-29T02:36:28.883Z,13.75
2017-10-29T02:36:55.024Z,13.72
2017-10-29T02:37:21.152Z,13.74
2017-10-29T02:37:47.277Z,13.77
2017-10-29T02:38:13.396Z,13.83
2017-10-29T02:38:39.537Z,13.74
2017-10-29T02:39:05.648Z,13.71
2017-10-29T02:39:31.765Z,13.78
2017-10-29T02:39:57.903Z,13.72
2017-10-29T02:40:24.015Z,13.75
2017-10-29T02:40:50.161Z,13.71
2017-10-29T02:41:16.283Z,13.77
2017-10-29T02:41:42.405Z,13.78
2017-10-29T02:42:08.536Z,13.71
2017-10-29T02:42:34.650Z,13.75
2017-10-29T02:43:00.773Z,13.67
2017-10-29T02:43:26.904Z,13.62
2017-10-29T02:43:53.025Z,13.6
2017-10-29T02:44:19.143Z,13.6
2017-10-29T02:44:45.269Z,13.59
2017-10-29T02:45:11.387Z,13.62
2017-10-29T02:45:37.513Z,13.68
2017-10-29T02:46:03.631Z,13.62
2017-10-29T02:46:29.775Z,13.68
2017-10-29T02:46:55.893Z,13.6
2017-10-29T02:47:22.012Z,13.68
2017-10-29T02:47:48.139Z,13.63
2017-10-29T02:48:14.265Z,13.71
2017-10-29T02:48:40.394Z,13.68
2017-10-29T02:49:06.531Z,13.7
2017-10-29T02:49:32.679Z,13.68
2017-10-29T02:49:58.795Z,13.68
2017-10-29T02:50:24.918Z,13.7
2017-10-29T02:50:51.042Z,13.71
2017-10-29T02:51:17.158Z,13.65
2017-10-29T02:51:43.286Z,13.62
2017-10-29T02:52:09.410Z,13.62
2017-10-29T02:52:35.526Z,13.62
2017-10-29T02:53:01.656Z,13.67
2017-10-29T02:53:27.775Z,13.67
2017-10-29T02:53:53.903Z,13.57
2017-10-29T02:54:20.024Z,13.6
2017-10-29T02:54:46.142Z,13.6
2017-10-29T02:55:12.269Z,13.65
2017-10-29T02:55:38.387Z,13.67
2017-10-29T02:56:04.508Z,13.67
2017-10-29T02:56:30.634Z,13.67
2017-10-29T02:56:56.757Z,13.6
2017-10-29T02:57:22.879Z,13.62
2017-10-29T02:57:48.996Z,13.67
2017-10-29T02:58:15.124Z,13.67
2017-10-29T02:58:41.248Z,13.67
2017-10-29T02:59:07.365Z,13.63
2017-10-29T02:59:33.484Z,13.6
2017-10-29T02:59:59.612Z,13.71
2017-10-29T03:00:25.736Z,13.72
2017-10-29T03:00:51.857Z,13.7
2017-10-29T03:01:17.984Z,13.77
2017-10-29T03:01:44.103Z,13.71
2017-10-29T03:02:10.223Z,13.75
2017-10-29T03:02:36.355Z,13.7
2017-10-29T03:03:02.476Z,13.7
2017-10-29T03:03:28.595Z,13.65
2017-10-29T03:03:54.722Z,13.71
2017-10-29T03:04:20.845Z,13.72
2017-10-29T03:04:46.963Z,13.56
2017-10-29T03:05:13.089Z,13.77
2017-10-29T03:05:39.209Z,13.7
2017-10-29T03:06:05.337Z,13.74
2017-10-29T03:06:31.455Z,13.68
2017-10-29T03:06:57.613Z,13.77
2017-10-29T03:07:23.731Z,13.71
2017-10-29T03:07:49.850Z,13.68
2017-10-29T03:08:15.972Z,13.68
2017-10-29T03:08:42.097Z,13.7
2017-10-29T03:09:08.220Z,13.72
2017-10-29T03:09:34.345Z,13.77
2017-10-29T03:10:00.462Z,13.77
2017-10-29T03:10:26.593Z,13.78
2017-10-29T03:10:52.714Z,13.7
2017-10-29T03:11:18.838Z,13.7
2017-10-29T03:11:44.962Z,13.79
2017-10-29T03:12:11.081Z,13.77
2017-10-29T03:12:37.253Z,13.79
2017-10-29T03:13:03.371Z,13.83
2017-10-29T03:13:29.500Z,13.74
2017-10-29T03:13:55.617Z,13.85
2017-10-29T03:14:21.741Z,13.72
2017-10-29T03:14:47.872Z,13.74
2017-10-29T03:15:13.996Z,13.78
2017-10-29T03:15:40.114Z,13.74
2017-10-29T03:16:06.236Z,13.74
2017-10-29T03:16:32.361Z,13.83
2017-10-29T03:16:58.504Z,13.75
2017-10-29T03:17:24.646Z,13.72
2017-10-29T03:17:50.775Z,13.74
2017-10-29T03:18:16.890Z,13.63
2017-10-29T03:18:43.011Z,13.67
2017-10-29T03:19:09.137Z,13.6
2017-10-29T03:19:35.261Z,13.53
2017-10-29T03:20:01.389Z,13.57
2017-10-29T03:20:27.510Z,13.53
2017-10-29T03:20:53.631Z,13.44
2017-10-29T03:21:19.759Z,13.46
2017-10-29T03:21:45.881Z,13.47
2017-10-29T03:22:12.004Z,13.38
2017-10-29T03:22:38.129Z,13.39
2017-10-29T03:23:04.253Z,13.37
2017-10-29T03:23:30.376Z,13.38
2017-10-29T03:23:56.493Z,13.35
2017-10-29T03:24:22.618Z,13.27
2017-10-29T03:24:48.745Z,13.3
2017-10-29T03:25:14.864Z,13.22
2017-10-29T03:25:40.989Z,13.23
2017-10-29T03:26:07.109Z,13.25
2017-10-29T03:26:33.236Z,13.16
2017-10-29T03:26:59.351Z,13.12
2017-10-29T03:27:25.479Z,13.12
2017-10-29T03:27:51.598Z,13.05
2017-10-29T03:28:17.747Z,13.08
2017-10-29T03:28:43.868Z,13.11
2017-10-29T03:29:09.996Z,13.03
2017-10-29T03:29:36.114Z,13.04
2017-10-29T03:30:02.237Z,12.97
2017-10-29T03:30:28.354Z,13
2017-10-29T03:30:54.482Z,12.85
2017-10-29T03:31:20.600Z,12.9
2017-10-29T03:31:46.720Z,12.95
2017-10-29T03:32:12.848Z,12.9
2017-10-29T03:32:38.968Z,12.94
2017-10-29T03:33:05.089Z,12.95
2017-10-29T03:33:31.220Z,12.8
2017-10-29T03:33:57.336Z,12.8
2017-10-29T03:34:23.463Z,12.85
2017-10-29T03:34:49.614Z,12.83
2017-10-29T03:35:15.703Z,12.86
2017-10-29T03:35:41.829Z,12.85
2017-10-29T03:36:07.947Z,12.8
2017-10-29T03:36:34.093Z,12.82
2017-10-29T03:37:00.232Z,12.8
2017-10-29T03:37:26.353Z,12.8
2017-10-29T03:37:52.471Z,12.9
2017-10-29T03:38:18.599Z,12.91
2017-10-29T03:38:44.719Z,12.95
2017-10-29T03:39:10.844Z,12.93
2017-10-29T03:39:36.962Z,12.87
2017-10-29T03:40:03.127Z,12.95
2017-10-29T03:40:29.212Z,12.94
2017-10-29T03:40:55.334Z,12.95
2017-10-29T03:41:21.464Z,12.94
2017-10-29T03:41:47.589Z,12.91
2017-10-29T03:42:13.710Z,12.91
2017-10-29T03:42:39.860Z,12.97
2017-10-29T03:43:05.977Z,12.94
2017-10-29T03:43:32.101Z,12.91
2017-10-29T03:43:58.238Z,12.93
2017-10-29T03:44:24.361Z,12.86
2017-10-29T03:44:50.501Z,12.95
2017-10-29T03:45:16.625Z,12.87
2017-10-29T03:45:42.753Z,12.91
2017-10-29T03:46:08.873Z,12.94
2017-10-29T03:46:35.002Z,12.86
2017-10-29T03:47:01.118Z,12.94
2017-10-29T03:47:27.241Z,12.93
2017-10-29T03:47:53.358Z,12.83
2017-10-29T03:48:19.487Z,12.87
2017-10-29T03:48:45.606Z,12.95
2017-10-29T03:49:11.730Z,12.87
2017-10-29T03:49:37.857Z,12.86
2017-10-29T03:50:03.974Z,12.95
2017-10-29T03:50:30.098Z,12.87
2017-10-29T03:50:56.238Z,12.82
2017-10-29T03:51:22.364Z,12.8
2017-10-29T03:51:48.482Z,12.82
2017-10-29T03:52:14.620Z,12.85
2017-10-29T03:52:40.733Z,12.8
2017-10-29T03:53:06.853Z,12.91
2017-10-29T03:53:32.978Z,12.8
2017-10-29T03:53:59.093Z,12.93
2017-10-29T03:54:25.221Z,12.87
2017-10-29T03:54:51.339Z,12.94
2017-10-29T03:55:17.461Z,12.87
2017-10-29T03:55:43.591Z,12.8
2017-10-29T03:56:09.705Z,12.82
2017-10-29T03:56:35.831Z,12.8
2017-10-29T03:57:01.955Z,12.8
2017-10-29T03:57:28.089Z,12.82
2017-10-29T03:57:54.216Z,12.8
2017-10-29T03:58:20.336Z,12.8
2017-10-29T03:58:46.462Z,12.8
2017-10-29T03:59:12.590Z,12.91
2017-10-29T03:59:38.705Z,12.91
2017-10-29T04:00:04.831Z,12.93
2017-10-29T04:00:30.974Z,12.91
2017-10-29T04:00:57.092Z,12.79
2017-10-29T04:01:23.217Z,12.86
2017-10-29T04:01:49.338Z,12.85
2017-10-29T04:02:15.454Z,12.8
2017-10-29T04:02:41.578Z,12.79
2017-10-29T04:03:07.700Z,12.83
2017-10-29T04:03:33.826Z,12.82
2017-10-29T04:03:59.946Z,12.94
2017-10-29T04:04:26.067Z,12.9
2017-10-29T04:04:52.191Z,12.94
2017-10-29T04:05:18.319Z,12.79
2017-10-29T04:05:44.442Z,12.87
2017-10-29T04:06:10.572Z,12.82
2017-10-29T04:06:36.697Z,12.73
2017-10-29T04:07:02.818Z,12.75
2017-10-29T04:07:28.934Z,12.65
2017-10-29T04:07:55.070Z,12.79
2017-10-29T04:08:21.177Z,12.75
2017-10-29T04:08:47.306Z,12.85
2017-10-29T04:09:13.424Z,12.79
2017-10-29T04:09:39.550Z,12.85
2017-10-29T04:10:05.666Z,12.79
2017-10-29T04:10:31.794Z,12.83
2017-10-29T04:10:57.925Z,12.8
2017-10-29T04:11:24.059Z,12.7
2017-10-29T04:11:50.185Z,12.73
2017-10-29T04:12:16.301Z,12.65
2017-10-29T04:12:42.428Z,12.65
2017-10-29T04:13:08.548Z,12.78
2017-10-29T04:13:34.676Z,12.67
2017-10-29T04:14:00.792Z,12.68
2017-10-29T04:14:26.923Z,12.58
2017-10-29T04:14:53.058Z,12.68
2017-10-29T04:15:19.178Z,12.64
2017-10-29T04:15:45.305Z,12.76
2017-10-29T04:16:11.423Z,12.72
2017-10-29T04:16:37.549Z,12.7
2017-10-29T04:17:03.675Z,12.72
2017-10-29T04:17:29.793Z,12.57
2017-10-29T04:17:55.915Z,12.65
2017-10-29T04:18:22.038Z,12.58
2017-10-29T04:18:48.165Z,12.75
2017-10-29T04:19:14.304Z,12.64
2017-10-29T04:19:40.426Z,12.73
2017-10-29T04:20:06.558Z,12.64
2017-10-29T04:20:32.674Z,12.61
2017-10-29T04:20:58.801Z,12.68
2017-10-29T04:21:24.924Z,12.53
2017-10-29T04:21:51.050Z,12.61
2017-10-29T04:22:17.162Z,12.62
2017-10-29T04:22:43.288Z,12.64
2017-10-29T04:23:09.405Z,12.58
2017-10-29T04:23:35.554Z,12.57
2017-10-29T04:24:01.677Z,12.65
2017-10-29T04:24:27.802Z,12.58
2017-10-29T04:24:53.929Z,12.68
2017-10-29T04:25:20.054Z,12.61
2017-10-29T04:25:46.182Z,12.68
2017-10-29T04:26:12.296Z,12.61
2017-10-29T04:26:38.436Z,12.7
2017-10-29T04:27:04.560Z,12.68
2017-10-29T04:27:30.678Z,12.65
2017-10-29T04:27:56.805Z,12.68
2017-10-29T04:28:22.926Z,12.58
2017-10-29T04:28:49.050Z,12.65
2017-10-29T04:29:15.180Z,12.65
2017-10-29T04:29:41.301Z,12.68
2017-10-29T04:30:07.436Z,12.7
2017-10-29T04:30:33.556Z,12.67
2017-10-29T04:30:59.671Z,12.61
2017-10-29T04:31:25.789Z,12.58
2017-10-29T04:31:51.917Z,12.6
2017-10-29T04:32:18.036Z,12.55
2017-10-29T04:32:44.154Z,12.78
2017-10-29T04:33:10.279Z,12.65
2017-10-29T04:33:36.403Z,12.73
2017-10-29T04:34:02.520Z,12.7
2017-10-29T04:34:28.667Z,12.67
2017-10-29T04:34:54.785Z,12.76
2017-10-29T04:35:20.922Z,12.72
2017-10-29T04:35:47.049Z,12.67
2017-10-29T04:36:13.165Z,12.75
2017-10-29T04:36:39.294Z,12.8
2017-10-29T04:37:05.420Z,12.86
2017-10-29T04:37:31.538Z,12.79
2017-10-29T04:37:57.658Z,12.85
2017-10-29T04:38:23.788Z,12.87
2017-10-29T04:38:49.910Z,12.82
2017-10-29T04:39:16.029Z,12.82
2017-10-29T04:39:42.151Z,12.82
2017-10-29T04:40:08.280Z,12.82
2017-10-29T04:40:34.398Z,12.85
2017-10-29T04:41:00.524Z,12.85
2017-10-29T04:41:26.640Z,12.82
2017-10-29T04:41:52.770Z,12.8
2017-10-29T04:42:18.895Z,12.85
2017-10-29T04:42:45.017Z,12.8
2017-10-29T04:43:11.143Z,12.79
2017-10-29T04:43:37.253Z,12.87
2017-10-29T04:44:03.381Z,12.82
2017-10-29T04:44:29.502Z,12.86
2017-10-29T04:44:55.631Z,12.82
2017-10-29T04:45:21.751Z,12.85
2017-10-29T04:45:47.879Z,12.82
2017-10-29T04:46:13.992Z,12.83
2017-10-29T04:46:40.117Z,12.85
2017-10-29T04:47:06.245Z,12.82
2017-10-29T04:47:32.365Z,12.87
2017-10-29T04:47:58.486Z,12.79
2017-10-29T04:48:24.616Z,12.82
2017-10-29T04:48:50.735Z,12.85
2017-10-29T04:49:16.855Z,12.91
2017-10-29T04:49:42.972Z,12.95
2017-10-29T04:50:09.096Z,12.98
2017-10-29T04:50:35.231Z,12.95
2017-10-29T04:51:01.349Z,12.93
2017-10-29T04:51:27.481Z,12.8
2017-10-29T04:51:53.593Z,12.8
2017-10-29T04:52:19.717Z,12.83
2017-10-29T04:52:45.836Z,12.82
2017-10-29T04:53:11.956Z,12.79
2017-10-29T04:53:38.080Z,12.85
2017-10-29T04:54:04.207Z,12.85
2017-10-29T04:54:30.323Z,12.85
2017-10-29T04:54:56.450Z,12.8
2017-10-29T04:55:22.569Z,12.79
2017-10-29T04:55:48.721Z,12.83
2017-10-29T04:56:14.821Z,12.82
2017-10-29T04:56:40.947Z,12.83
2017-10-29T04:57:07.059Z,12.82
2017-10-29T04:57:33.188Z,12.79
2017-10-29T04:57:59.311Z,12.75
2017-10-29T04:58:25.429Z,12.82
2017-10-29T04:58:51.556Z,12.83
2017-10-29T04:59:17.679Z,12.85
2017-10-29T04:59:43.806Z,12.82
2017-10-29T05:00:09.922Z,12.82
2017-10-29T05:00:36.047Z,12.82
2017-10-29T05:01:02.166Z,12.85
2017-10-29T05:01:28.293Z,12.82
2017-10-29T05:01:54.411Z,12.87
2017-10-29T05:02:20.532Z,12.87
2017-10-29T05:02:46.659Z,12.82
2017-10-29T05:03:12.776Z,12.82
2017-10-29T05:03:38.926Z,12.86
2017-10-29T05:04:05.050Z,12.83
2017-10-29T05:04:31.174Z,12.82
2017-10-29T05:04:57.295Z,12.86
2017-10-29T05:05:23.428Z,12.82
2017-10-29T05:05:49.538Z,12.78
2017-10-29T05:06:15.659Z,12.86
2017-10-29T05:06:41.777Z,12.82
2017-10-29T05:07:07.897Z,12.87
2017-10-29T05:07:34.021Z,12.8
2017-10-29T05:08:00.152Z,12.85
2017-10-29T05:08:26.268Z,12.93
2017-10-29T05:08:52.388Z,12.93
2017-10-29T05:09:18.516Z,12.97
2017-10-29T05:09:44.657Z,12.93
2017-10-29T05:10:10.806Z,12.91
2017-10-29T05:10:36.933Z,12.93
2017-10-29T05:11:03.056Z,12.93
2017-10-29T05:11:29.178Z,12.83
2017-10-29T05:11:55.299Z,12.85
2017-10-29T05:12:21.446Z,12.91
2017-10-29T05:12:47.594Z,12.97
2017-10-29T05:13:13.717Z,12.83
2017-10-29T05:13:39.837Z,12.94
2017-10-29T05:14:05.961Z,12.91
2017-10-29T05:14:32.078Z,12.87
2017-10-29T05:14:58.210Z,12.93
2017-10-29T05:15:24.327Z,12.93
2017-10-29T05:15:50.454Z,12.85
2017-10-29T05:16:16.577Z,12.85
2017-10-29T05:16:42.698Z,12.91
2017-10-29T05:17:08.816Z,12.87
2017-10-29T05:17:34.945Z,12.87
2017-10-29T05:18:01.068Z,12.93
2017-10-29T05:18:27.187Z,12.91
2017-10-29T05:18:53.334Z,12.9
2017-10-29T05:19:19.448Z,12.82
2017-10-29T05:19:45.577Z,12.82
2017-10-29T05:20:11.697Z,12.78
2017-10-29T05:20:37.841Z,12.83
2017-10-29T05:21:03.959Z,12.85
2017-10-29T05:21:30.082Z,12.8
2017-10-29T05:21:56.209Z,12.82
2017-10-29T05:22:22.336Z,12.8
2017-10-29T05:22:48.455Z,12.82
2017-10-29T05:23:14.576Z,12.83
2017-10-29T05:23:40.703Z,12.83
2017-10-29T05:24:06.828Z,12.86
2017-10-29T05:24:32.946Z,12.86
2017-10-29T05:24:59.066Z,12.82
2017-10-29T05:25:25.194Z,12.8
2017-10-29T05:25:51.310Z,12.82
2017-10-29T05:26:17.459Z,12.82
2017-10-29T05:26:43.578Z,12.82
2017-10-29T05:27:09.708Z,12.86
2017-10-29T05:27:35.830Z,12.93
2017-10-29T05:28:01.953Z,12.97
2017-10-29T05:28:28.072Z,12.95
2017-10-29T05:28:54.197Z,12.8
2017-10-29T05:29:20.318Z,12.79
2017-10-29T05:29:46.454Z,12.85
2017-10-29T05:30:12.585Z,12.85
2017-10-29T05:30:38.712Z,12.82
2017-10-29T05:31:04.830Z,12.79
2017-10-29T05:31:30.968Z,12.75
2017-10-29T05:31:57.134Z,12.7
2017-10-29T05:32:23.252Z,12.72
2017-10-29T05:32:49.378Z,12.67
2017-10-29T05:33:15.492Z,12.67
2017-10-29T05:33:41.620Z,12.72
2017-10-29T05:34:07.736Z,12.68
2017-10-29T05:34:33.884Z,12.7
2017-10-29T05:35:00.007Z,12.73
2017-10-29T05:35:26.123Z,12.73
2017-10-29T05:35:52.254Z,12.67
2017-10-29T05:36:18.376Z,12.7
2017-10-29T05:36:44.495Z,12.73
2017-10-29T05:37:10.631Z,12.64
2017-10-29T05:37:36.768Z,12.7
2017-10-29T05:38:02.877Z,12.7
2017-10-29T05:38:29.005Z,12.73